ETMN

Nordholz Naval Airbase Airport

Cuxhaven, Germany
METAR ETMN 131041Z 08009KT 9999 FEW010 SCT020 BKN030 02/M01 Q1026 BLU BLU TEMPO WHT
Observed Flight Rules
Dec-13 @ 10:41 UTC (40 minutes ago) Marginal Visual Flight Rules
Wind Visibility Clouds
80° at 9 knots 10,000+ meters
  • Few at 1,000' AGL
  • Scattered at 2,000' AGL
  • Broken at 3,000' AGL
Temperatures Readings
Current 2°C / 36°F
Dewpoint -1°C / 30°F
Humidity 81%
Altimeter 30.3" Hg
Pressure 1026 hPa
Elevation 31
METAR ETMN 131041Z 08009KT 9999 FEW010 SCT020 BKN030 02/M01 Q1026 BLU BLU TEMPO WHT
Observed Flight Rules
Dec-13 @ 10:41 UTC
(40 minutes ago)
MVFR
Wind Visibility
80° at 9 knots 10,000+ meters
Clouds
  • Few at 1,000' AGL
  • Scattered at 2,000' AGL
  • Broken at 3,000' AGL
Temperature Dewpoint
2°C / 36°F -1°C / 30°F
Humidity Altimeter Pressure
81% 30.3" Hg 1026 hPa